createdAt,value
2022-09-30T00:00:29.870Z,3.70
2022-09-30T00:03:20.234Z,3.80
2022-09-30T00:06:09.267Z,3.73
2022-09-30T00:08:58.065Z,3.40
2022-09-30T00:11:46.776Z,3.53
2022-09-30T00:14:35.384Z,4.07
2022-09-30T00:17:23.836Z,3.80
2022-09-30T00:20:14.893Z,3.97
2022-09-30T00:23:03.582Z,3.60
2022-09-30T00:25:52.138Z,3.50
2022-09-30T00:28:41.098Z,3.23
2022-09-30T00:31:31.441Z,3.13
2022-09-30T00:34:20.608Z,2.93
2022-09-30T00:37:11.685Z,2.83
2022-09-30T00:40:00.506Z,3.43
2022-09-30T00:42:49.257Z,3.07
2022-09-30T00:45:37.696Z,3.23
2022-09-30T00:48:28.487Z,3.73
2022-09-30T00:51:17.102Z,3.40
2022-09-30T00:54:08.344Z,3.50
2022-09-30T00:57:00.318Z,3.63
2022-09-30T00:59:49.412Z,3.83
2022-09-30T01:02:37.827Z,3.63
2022-09-30T01:05:27.308Z,3.90
2022-09-30T01:08:18.162Z,3.57
2022-09-30T01:11:08.560Z,3.80
2022-09-30T01:13:59.691Z,3.70
2022-09-30T01:16:56.829Z,3.57
2022-09-30T01:20:38.497Z,3.57
2022-09-30T01:23:52.619Z,3.60
2022-09-30T01:27:08.423Z,3.60
2022-09-30T01:30:12.577Z,3.50
2022-09-30T01:33:14.800Z,3.67
2022-09-30T01:36:18.075Z,3.80
2022-09-30T01:39:21.092Z,3.80
2022-09-30T01:42:14.923Z,3.90
2022-09-30T01:45:10.047Z,4.07
2022-09-30T01:48:00.210Z,3.90
2022-09-30T01:50:53.553Z,3.53
2022-09-30T01:53:44.414Z,3.90
2022-09-30T01:56:36.597Z,3.40
2022-09-30T01:59:27.603Z,3.57
2022-09-30T02:02:19.623Z,3.10
2022-09-30T02:05:10.409Z,3.30
2022-09-30T02:08:02.155Z,3.47
2022-09-30T02:10:56.156Z,3.37
2022-09-30T02:13:49.297Z,3.00
2022-09-30T02:16:40.739Z,3.23
2022-09-30T02:19:31.960Z,3.00
2022-09-30T02:22:23.537Z,2.90
2022-09-30T02:25:20.192Z,3.10
2022-09-30T02:28:12.212Z,3.00
2022-09-30T02:31:01.988Z,2.87
2022-09-30T02:33:51.969Z,3.13
2022-09-30T02:36:42.220Z,2.60
2022-09-30T02:39:34.514Z,2.63
2022-09-30T02:42:28.465Z,2.97
2022-09-30T02:45:20.737Z,3.00
2022-09-30T02:48:17.045Z,3.30
2022-09-30T02:51:07.561Z,2.80
2022-09-30T02:54:02.146Z,2.70
2022-09-30T02:56:54.348Z,2.70
2022-09-30T02:59:44.078Z,2.63
2022-09-30T03:02:32.547Z,2.80
2022-09-30T03:05:21.336Z,2.60
2022-09-30T03:08:09.726Z,3.13
2022-09-30T03:10:58.196Z,2.80
2022-09-30T03:14:12.498Z,2.83
2022-09-30T03:17:31.043Z,2.47
2022-09-30T03:20:35.291Z,2.30
2022-09-30T03:23:44.328Z,2.53
2022-09-30T03:26:39.133Z,2.73
2022-09-30T03:29:33.225Z,2.70
2022-09-30T03:32:44.539Z,2.80
2022-09-30T03:35:37.252Z,2.87
2022-09-30T03:38:33.930Z,3.30
2022-09-30T03:41:28.283Z,3.00
2022-09-30T03:44:18.304Z,3.57
2022-09-30T03:47:08.900Z,3.30
2022-09-30T03:50:00.787Z,3.93
2022-09-30T03:52:49.303Z,4.13
2022-09-30T03:55:47.727Z,4.40
2022-09-30T03:58:43.984Z,4.87
2022-09-30T04:01:32.402Z,4.83
2022-09-30T04:04:20.830Z,5.87
2022-09-30T04:07:10.852Z,8.00
2022-09-30T04:09:59.370Z,8.07
2022-09-30T04:12:47.753Z,5.90
2022-09-30T04:15:36.255Z,7.20
2022-09-30T04:18:24.762Z,5.17
2022-09-30T04:21:14.509Z,5.00
2022-09-30T04:24:04.755Z,4.27
2022-09-30T04:26:53.329Z,4.83
2022-09-30T04:29:41.817Z,4.50
2022-09-30T04:32:30.418Z,4.37
2022-09-30T04:35:18.816Z,4.50
2022-09-30T04:38:07.419Z,4.10
2022-09-30T04:40:57.313Z,4.30
2022-09-30T04:43:46.701Z,4.37
2022-09-30T04:46:36.623Z,3.97
2022-09-30T04:49:25.142Z,3.90
2022-09-30T04:52:13.613Z,4.00
2022-09-30T04:55:02.091Z,4.20
2022-09-30T04:57:52.567Z,3.90
2022-09-30T05:00:40.991Z,4.20
2022-09-30T05:03:29.505Z,3.97
2022-09-30T05:06:18.114Z,4.10
2022-09-30T05:09:06.777Z,3.67
2022-09-30T05:11:55.267Z,3.37
2022-09-30T05:14:45.120Z,3.60
2022-09-30T05:17:33.725Z,3.33
2022-09-30T05:20:22.217Z,3.30
2022-09-30T05:23:10.593Z,3.80
2022-09-30T05:25:59.366Z,3.03
2022-09-30T05:28:47.859Z,3.30
2022-09-30T05:31:37.801Z,3.50
2022-09-30T05:34:26.626Z,3.40
2022-09-30T05:37:15.421Z,2.97
2022-09-30T05:40:04.013Z,3.00
2022-09-30T05:42:52.515Z,2.90
2022-09-30T05:45:40.962Z,2.63
2022-09-30T05:48:30.838Z,3.00
2022-09-30T05:51:19.209Z,3.13
2022-09-30T05:54:07.655Z,2.93
2022-09-30T05:56:56.067Z,2.97
2022-09-30T05:59:44.570Z,2.93
2022-09-30T06:02:33.540Z,2.97
2022-09-30T06:05:03.186Z,2.80
2022-09-30T06:07:31.360Z,2.80
2022-09-30T06:09:59.484Z,3.27
2022-09-30T06:12:28.836Z,3.87
2022-09-30T06:14:57.263Z,3.20
2022-09-30T06:17:25.435Z,3.10
2022-09-30T06:19:53.665Z,3.10
2022-09-30T06:22:23.184Z,3.57
2022-09-30T06:24:54.966Z,4.33
2022-09-30T06:27:25.055Z,4.50
2022-09-30T06:29:53.316Z,4.53
2022-09-30T06:32:21.449Z,3.53
2022-09-30T06:34:49.664Z,2.97
2022-09-30T06:37:18.543Z,3.73
2022-09-30T06:39:48.065Z,3.30
2022-09-30T06:42:16.256Z,7.57
2022-09-30T06:44:52.732Z,6.40
2022-09-30T06:47:25.439Z,6.10
2022-09-30T06:49:58.466Z,7.90
2022-09-30T06:52:27.328Z,6.70
2022-09-30T06:54:57.424Z,7.00
2022-09-30T06:57:27.703Z,6.20
2022-09-30T06:59:56.184Z,7.13
2022-09-30T07:02:24.376Z,8.60
2022-09-30T07:04:52.622Z,6.37
2022-09-30T07:07:22.222Z,8.83
2022-09-30T07:09:50.412Z,8.00
2022-09-30T07:12:19.992Z,8.07
2022-09-30T07:14:48.267Z,8.87
2022-09-30T07:17:16.391Z,9.40
2022-09-30T07:19:44.649Z,8.20
2022-09-30T07:22:26.844Z,8.33
2022-09-30T07:24:55.169Z,7.40
2022-09-30T07:27:24.753Z,9.80
2022-09-30T07:30:12.541Z,9.03
2022-09-30T07:32:41.257Z,10.40
2022-09-30T07:35:09.912Z,12.87
2022-09-30T07:37:38.097Z,9.10
2022-09-30T07:40:07.945Z,11.10
2022-09-30T07:42:41.642Z,9.70
2022-09-30T07:45:11.079Z,8.00
2022-09-30T07:47:39.260Z,9.63
2022-09-30T07:50:10.277Z,10.27
2022-09-30T07:52:38.434Z,7.60
2022-09-30T07:55:07.256Z,8.67
2022-09-30T07:57:35.824Z,7.83
2022-09-30T08:00:29.805Z,8.00
2022-09-30T08:02:55.552Z,7.73
2022-09-30T08:05:23.823Z,7.77
2022-09-30T08:07:51.973Z,8.17
2022-09-30T08:12:54.646Z,10.67
2022-09-30T08:15:27.426Z,9.47
2022-09-30T08:17:55.584Z,9.90
2022-09-30T08:20:23.969Z,10.90
2022-09-30T08:22:55.556Z,10.00
2022-09-30T08:25:24.132Z,9.67
2022-09-30T08:27:52.526Z,8.97
2022-09-30T08:30:20.950Z,11.07
2022-09-30T08:32:50.676Z,10.17
2022-09-30T08:35:18.883Z,10.63
2022-09-30T08:37:47.059Z,9.07
2022-09-30T08:40:20.975Z,10.60
2022-09-30T08:43:17.993Z,10.63
2022-09-30T08:45:53.426Z,11.20
2022-09-30T08:48:43.284Z,9.97
2022-09-30T08:51:29.063Z,9.70
2022-09-30T08:53:58.431Z,9.07
2022-09-30T08:56:28.423Z,9.57
2022-09-30T08:58:59.226Z,8.93
2022-09-30T09:01:31.981Z,10.87
2022-09-30T09:04:02.412Z,10.93
2022-09-30T09:06:34.316Z,10.27
2022-09-30T09:09:23.728Z,9.57
2022-09-30T09:12:06.968Z,10.33
2022-09-30T09:14:41.883Z,10.80
2022-09-30T09:17:20.396Z,10.93
2022-09-30T09:19:59.781Z,10.90
2022-09-30T09:22:28.301Z,12.03
2022-09-30T09:24:56.478Z,11.23
2022-09-30T09:27:31.771Z,11.77
2022-09-30T09:30:07.503Z,10.33
2022-09-30T09:32:36.061Z,10.43
2022-09-30T09:35:15.051Z,9.93
2022-09-30T09:38:08.493Z,10.17
2022-09-30T09:40:42.760Z,13.07
2022-09-30T09:43:18.780Z,10.03
2022-09-30T09:45:52.636Z,9.80
2022-09-30T09:48:20.893Z,9.57
2022-09-30T09:50:58.930Z,9.87
2022-09-30T09:53:45.187Z,9.33
2022-09-30T09:56:19.976Z,9.90
2022-09-30T09:59:09.386Z,10.80
2022-09-30T10:01:39.678Z,10.23
2022-09-30T10:04:17.838Z,9.23
2022-09-30T10:06:54.046Z,8.37
2022-09-30T10:09:31.288Z,8.60
2022-09-30T10:12:28.365Z,9.17
2022-09-30T10:15:03.167Z,8.97
2022-09-30T10:17:32.992Z,9.03
2022-09-30T10:20:07.022Z,8.33
2022-09-30T10:22:37.107Z,8.03
2022-09-30T10:25:24.176Z,7.60
2022-09-30T10:27:55.891Z,7.87
2022-09-30T10:30:41.292Z,7.27
2022-09-30T10:33:25.785Z,7.30
2022-09-30T10:35:58.026Z,7.00
2022-09-30T10:38:29.349Z,7.13
2022-09-30T10:40:57.623Z,6.60
2022-09-30T10:43:29.049Z,6.07
2022-09-30T10:46:21.317Z,6.23
2022-09-30T10:48:47.690Z,6.90
2022-09-30T10:51:24.726Z,6.43
2022-09-30T10:53:54.509Z,5.73
2022-09-30T10:56:44.616Z,6.30
2022-09-30T10:59:27.429Z,5.30
2022-09-30T11:01:58.618Z,5.50
2022-09-30T11:04:30.821Z,5.27
2022-09-30T11:07:04.583Z,4.90
2022-09-30T11:09:39.329Z,5.17
2022-09-30T11:12:14.476Z,5.00
2022-09-30T11:14:47.074Z,5.57
2022-09-30T11:17:26.881Z,5.27
2022-09-30T11:20:01.770Z,5.67
2022-09-30T11:22:35.511Z,5.33
2022-09-30T11:25:10.933Z,5.50
2022-09-30T11:28:03.663Z,4.87
2022-09-30T11:30:34.363Z,5.63
2022-09-30T11:33:25.365Z,5.00
2022-09-30T11:35:57.524Z,4.70
2022-09-30T11:38:47.775Z,4.80
2022-09-30T11:41:20.855Z,5.73
2022-09-30T11:43:57.234Z,4.87
2022-09-30T11:46:48.458Z,4.80
2022-09-30T11:49:33.844Z,5.20
2022-09-30T11:52:07.862Z,4.73
2022-09-30T11:54:48.593Z,4.50
2022-09-30T11:57:22.102Z,4.07
2022-09-30T11:59:53.931Z,4.93
2022-09-30T12:02:31.801Z,4.60
2022-09-30T12:05:02.365Z,4.23
2022-09-30T12:07:39.193Z,4.20
2022-09-30T12:10:16.989Z,4.00
2022-09-30T12:12:46.706Z,4.00
2022-09-30T12:15:17.427Z,3.37
2022-09-30T12:17:47.859Z,3.57
2022-09-30T12:20:19.208Z,3.20
2022-09-30T12:22:47.697Z,3.00
2022-09-30T12:25:19.740Z,4.50
2022-09-30T12:27:51.499Z,3.97
2022-09-30T12:30:21.026Z,4.27
2022-09-30T12:33:33.044Z,4.40
2022-09-30T12:36:37.832Z,5.30
2022-09-30T12:39:51.346Z,5.23
2022-09-30T12:42:52.769Z,4.87
2022-09-30T12:46:07.203Z,4.43
2022-09-30T12:48:39.040Z,4.50
2022-09-30T12:51:07.169Z,4.50
2022-09-30T12:53:37.154Z,5.77
2022-09-30T12:56:07.088Z,5.33
2022-09-30T12:58:38.385Z,5.47
2022-09-30T13:01:08.696Z,4.30
2022-09-30T13:04:17.912Z,4.13
2022-09-30T13:07:18.879Z,3.47
2022-09-30T13:10:18.681Z,4.30
2022-09-30T13:12:47.657Z,4.83
2022-09-30T13:15:45.257Z,4.60
2022-09-30T13:18:59.202Z,4.67
2022-09-30T13:21:27.317Z,4.00
2022-09-30T13:23:56.482Z,4.23
2022-09-30T13:26:39.075Z,6.13
2022-09-30T13:29:39.859Z,5.80
2022-09-30T13:32:10.536Z,5.87
2022-09-30T13:34:57.221Z,5.40
2022-09-30T13:37:41.085Z,4.90
2022-09-30T13:40:23.158Z,4.80
2022-09-30T13:43:04.497Z,5.07
2022-09-30T13:45:36.848Z,5.50
2022-09-30T13:48:12.176Z,5.73
2022-09-30T13:50:47.442Z,4.83
2022-09-30T13:53:22.440Z,5.30
2022-09-30T13:55:53.672Z,4.63
2022-09-30T13:59:09.775Z,4.87
2022-09-30T14:01:53.607Z,5.10
2022-09-30T14:04:47.647Z,5.17
2022-09-30T14:07:20.905Z,5.90
2022-09-30T14:10:09.092Z,5.07
2022-09-30T14:12:53.610Z,4.83
2022-09-30T14:16:06.753Z,5.00
2022-09-30T14:19:07.089Z,4.03
2022-09-30T14:21:38.539Z,4.80
2022-09-30T14:24:12.856Z,4.60
2022-09-30T14:27:11.074Z,4.50
2022-09-30T14:29:46.109Z,4.60
2022-09-30T14:32:15.161Z,4.87
2022-09-30T14:34:43.317Z,3.97
2022-09-30T14:37:18.770Z,4.80
2022-09-30T14:39:48.143Z,5.40
2022-09-30T14:42:28.085Z,4.50
2022-09-30T14:45:02.108Z,4.20
2022-09-30T14:47:32.009Z,4.30
2022-09-30T14:50:01.030Z,4.20
2022-09-30T14:52:39.449Z,4.00
2022-09-30T14:55:26.914Z,4.50
2022-09-30T14:57:56.108Z,3.83
2022-09-30T15:00:31.077Z,3.63
2022-09-30T15:03:00.393Z,3.20
2022-09-30T15:05:28.640Z,3.50
2022-09-30T15:07:58.201Z,3.60
2022-09-30T15:10:26.648Z,3.93
2022-09-30T15:12:56.045Z,3.23
2022-09-30T15:15:28.445Z,3.47
2022-09-30T15:17:56.891Z,3.50
2022-09-30T15:20:29.283Z,3.83
2022-09-30T15:23:03.200Z,3.73
2022-09-30T15:25:31.630Z,3.70
2022-09-30T15:27:59.941Z,2.90
2022-09-30T15:30:29.493Z,3.00
2022-09-30T15:33:02.077Z,2.97
2022-09-30T15:35:30.249Z,2.80
2022-09-30T15:38:09.240Z,2.73
2022-09-30T15:40:50.482Z,3.07
2022-09-30T15:43:33.356Z,2.80
2022-09-30T15:46:18.320Z,2.83
2022-09-30T15:48:46.878Z,2.43
2022-09-30T15:51:26.873Z,2.67
2022-09-30T15:53:58.020Z,2.50
2022-09-30T15:56:28.214Z,2.37
2022-09-30T15:58:56.899Z,3.37
2022-09-30T16:01:26.689Z,3.27
2022-09-30T16:03:56.668Z,3.30
2022-09-30T16:06:28.187Z,3.00
2022-09-30T16:09:01.286Z,3.20
2022-09-30T16:11:32.259Z,3.50
2022-09-30T16:14:00.384Z,2.87
2022-09-30T16:16:31.402Z,3.80
2022-09-30T16:19:00.134Z,3.63
2022-09-30T16:21:50.477Z,17.40
2022-09-30T16:24:47.899Z,28.40
2022-09-30T16:27:32.714Z,22.67
2022-09-30T16:30:02.225Z,23.90
2022-09-30T16:32:33.833Z,23.07
2022-09-30T16:35:01.975Z,24.40
2022-09-30T16:37:30.185Z,33.53
2022-09-30T16:40:01.693Z,37.43
2022-09-30T16:42:32.999Z,55.20
2022-09-30T16:45:01.922Z,52.60
2022-09-30T16:47:30.092Z,42.60
2022-09-30T16:49:58.858Z,36.30
2022-09-30T16:52:26.990Z,29.63
2022-09-30T16:54:55.140Z,20.83
2022-09-30T16:57:24.634Z,22.07
2022-09-30T16:59:52.711Z,15.90
2022-09-30T17:02:21.789Z,14.13
2022-09-30T17:04:49.992Z,13.00
2022-09-30T17:07:18.238Z,9.67
2022-09-30T17:09:46.595Z,7.33
2022-09-30T17:12:14.880Z,7.17
2022-09-30T17:14:44.597Z,6.00
2022-09-30T17:17:13.956Z,4.83
2022-09-30T17:19:42.646Z,4.70
2022-09-30T17:22:10.809Z,5.70
2022-09-30T17:24:39.278Z,4.43
2022-09-30T17:27:07.827Z,4.80
2022-09-30T17:29:41.827Z,3.77
2022-09-30T17:32:12.105Z,4.20
2022-09-30T17:34:41.226Z,4.57
2022-09-30T17:37:09.457Z,5.10
2022-09-30T17:39:37.529Z,6.40
2022-09-30T17:42:23.524Z,5.67
2022-09-30T17:44:52.260Z,7.27
2022-09-30T17:47:22.393Z,6.47
2022-09-30T17:49:50.671Z,5.17
2022-09-30T17:52:18.809Z,6.57
2022-09-30T17:54:52.007Z,4.77
2022-09-30T17:57:20.911Z,4.57
2022-09-30T17:59:48.995Z,4.63
2022-09-30T18:02:18.154Z,4.80
2022-09-30T18:04:47.903Z,4.70
2022-09-30T18:07:16.184Z,4.30
2022-09-30T18:09:44.415Z,3.97
2022-09-30T18:12:12.715Z,3.90
2022-09-30T18:14:40.912Z,3.80
2022-09-30T18:17:09.084Z,3.30
2022-09-30T18:19:37.280Z,3.20
2022-09-30T18:22:06.748Z,3.40
2022-09-30T18:24:52.621Z,3.33
2022-09-30T18:27:22.688Z,3.67
2022-09-30T18:29:51.025Z,4.03
2022-09-30T18:32:19.450Z,4.00
2022-09-30T18:34:47.584Z,4.10
2022-09-30T18:37:17.235Z,4.03
2022-09-30T18:39:45.334Z,4.43
2022-09-30T18:42:13.580Z,4.30
2022-09-30T18:44:41.693Z,4.10
2022-09-30T18:47:10.033Z,3.50
2022-09-30T18:49:38.146Z,3.57
2022-09-30T18:52:06.208Z,4.10
2022-09-30T18:54:36.004Z,4.13
2022-09-30T18:57:04.158Z,4.43
2022-09-30T18:59:32.696Z,3.87
2022-09-30T19:02:02.983Z,3.80
2022-09-30T19:04:31.603Z,3.53
2022-09-30T19:06:59.786Z,3.80
2022-09-30T19:09:28.688Z,3.37
2022-09-30T19:12:00.028Z,3.57
2022-09-30T19:14:30.701Z,3.50
2022-09-30T19:16:58.918Z,3.60
2022-09-30T19:19:27.139Z,3.63
2022-09-30T19:22:00.194Z,3.90
2022-09-30T19:24:28.422Z,3.17
2022-09-30T19:26:58.189Z,3.70
2022-09-30T19:29:26.862Z,4.13
2022-09-30T19:31:57.505Z,4.33
2022-09-30T19:34:32.074Z,4.53
2022-09-30T19:37:01.080Z,4.10
2022-09-30T19:39:40.410Z,4.30
2022-09-30T19:42:14.270Z,4.63
2022-09-30T19:44:42.895Z,4.60
2022-09-30T19:47:11.109Z,4.80
2022-09-30T19:49:39.391Z,4.13
2022-09-30T19:52:16.950Z,4.20
2022-09-30T19:54:47.081Z,3.70
2022-09-30T19:57:16.806Z,3.43
2022-09-30T19:59:45.041Z,3.70
2022-09-30T20:02:13.249Z,3.13
2022-09-30T20:05:00.558Z,3.60
2022-09-30T20:07:51.067Z,3.40
2022-09-30T20:10:39.744Z,3.50
2022-09-30T20:13:29.990Z,3.30
2022-09-30T20:16:17.540Z,3.30
2022-09-30T20:19:06.164Z,3.37
2022-09-30T20:21:54.926Z,3.40
2022-09-30T20:24:43.287Z,3.50
2022-09-30T20:27:32.979Z,3.53
2022-09-30T20:30:22.855Z,4.20
2022-09-30T20:33:11.314Z,4.27
2022-09-30T20:36:01.076Z,4.53
2022-09-30T20:38:51.307Z,4.70
2022-09-30T20:41:40.500Z,4.50
2022-09-30T20:44:28.887Z,5.20
2022-09-30T20:47:19.332Z,5.80
2022-09-30T20:50:08.774Z,4.63
2022-09-30T20:52:57.323Z,4.33
2022-09-30T20:55:45.858Z,3.90
2022-09-30T20:58:34.355Z,3.60
2022-09-30T21:01:23.975Z,3.67
2022-09-30T21:04:13.930Z,3.97
2022-09-30T21:07:02.422Z,3.80
2022-09-30T21:09:51.481Z,4.20
2022-09-30T21:12:40.024Z,4.20
2022-09-30T21:15:28.997Z,4.57
2022-09-30T21:18:17.485Z,4.33
2022-09-30T21:21:07.684Z,4.37
2022-09-30T21:23:57.487Z,4.50
2022-09-30T21:26:46.050Z,4.27
2022-09-30T21:29:34.478Z,4.47
2022-09-30T21:32:22.888Z,4.17
2022-09-30T21:35:12.778Z,4.70
2022-09-30T21:38:02.588Z,4.70
2022-09-30T21:40:51.420Z,4.63
2022-09-30T21:43:39.951Z,4.97
2022-09-30T21:46:29.480Z,4.90
2022-09-30T21:49:19.936Z,5.53
2022-09-30T21:52:10.445Z,4.97
2022-09-30T21:55:00.188Z,5.10
2022-09-30T21:57:48.594Z,6.10
2022-09-30T22:00:37.068Z,5.83
2022-09-30T22:03:25.614Z,6.30
2022-09-30T22:06:14.380Z,5.77
2022-09-30T22:09:02.868Z,5.10
2022-09-30T22:11:52.891Z,5.70
2022-09-30T22:14:41.342Z,6.13
2022-09-30T22:17:29.787Z,5.50
2022-09-30T22:20:19.530Z,5.43
2022-09-30T22:23:08.037Z,5.53
2022-09-30T22:25:57.420Z,5.73
2022-09-30T22:28:47.639Z,5.80
2022-09-30T22:31:36.389Z,5.43
2022-09-30T22:34:42.891Z,5.80
2022-09-30T22:37:48.898Z,5.57
2022-09-30T22:40:37.402Z,5.33
2022-09-30T22:43:25.913Z,6.17
2022-09-30T22:46:15.742Z,5.30
2022-09-30T22:49:04.377Z,5.40
2022-09-30T22:51:52.840Z,5.33
2022-09-30T22:54:41.258Z,5.67
2022-09-30T22:57:30.915Z,5.53
2022-09-30T23:00:19.427Z,5.10
2022-09-30T23:03:10.110Z,5.30
2022-09-30T23:06:01.393Z,5.70
2022-09-30T23:08:50.338Z,4.20
2022-09-30T23:11:39.184Z,4.27
2022-09-30T23:14:27.992Z,4.07
2022-09-30T23:17:16.332Z,4.20
2022-09-30T23:20:08.528Z,4.23
2022-09-30T23:22:57.064Z,4.10
2022-09-30T23:25:45.589Z,4.30
2022-09-30T23:28:34.085Z,5.40
2022-09-30T23:31:22.535Z,4.70
2022-09-30T23:34:11.012Z,5.10
2022-09-30T23:37:00.831Z,6.00
2022-09-30T23:39:49.365Z,5.97
2022-09-30T23:42:37.842Z,6.00
2022-09-30T23:45:26.226Z,5.77
2022-09-30T23:48:14.659Z,6.10
2022-09-30T23:51:04.355Z,5.90
2022-09-30T23:53:54.309Z,5.80
2022-09-30T23:56:42.752Z,5.57
2022-09-30T23:59:31.344Z,5.97
